createdAt,value
2019-03-30T04:46:20.831Z,68.00
2019-03-30T04:47:20.823Z,76.00
2019-03-30T04:48:20.817Z,80.00
2019-03-30T04:49:20.798Z,92.00
2019-03-30T04:50:20.784Z,96.00
2019-03-30T04:51:20.768Z,108.00
2019-03-30T04:52:20.770Z,116.00
2019-03-30T04:53:20.774Z,128.00
2019-03-30T04:54:20.746Z,144.00
2019-03-30T04:55:20.735Z,156.00
2019-03-30T04:56:20.727Z,164.00
2019-03-30T04:57:20.724Z,180.00
2019-03-30T04:58:20.701Z,196.00
2019-03-30T04:59:20.687Z,212.00
2019-03-30T05:00:20.683Z,232.00
2019-03-30T05:01:20.682Z,248.00
2019-03-30T05:02:20.660Z,264.00
2019-03-30T05:03:20.656Z,284.00
2019-03-30T05:04:20.641Z,304.00
2019-03-30T05:05:20.629Z,324.00
2019-03-30T05:06:20.620Z,340.00
2019-03-30T05:07:20.602Z,364.00
2019-03-30T05:08:20.597Z,388.00
2019-03-30T05:09:20.594Z,412.00
2019-03-30T05:10:20.579Z,436.00
2019-03-30T05:11:20.564Z,460.00
2019-03-30T05:12:21.485Z,488.00
2019-03-30T05:13:20.538Z,516.00
2019-03-30T05:14:20.527Z,540.00
2019-03-30T05:15:20.531Z,572.00
2019-03-30T05:16:20.510Z,600.00
2019-03-30T05:17:20.505Z,628.00
2019-03-30T05:18:20.490Z,656.00
2019-03-30T05:19:20.492Z,680.00
2019-03-30T05:20:20.495Z,708.00
2019-03-30T05:21:20.457Z,728.00
2019-03-30T05:22:20.448Z,756.00
2019-03-30T05:23:20.438Z,776.00
2019-03-30T05:24:20.420Z,800.00
2019-03-30T05:25:20.410Z,828.00
2019-03-30T05:26:20.413Z,856.00
2019-03-30T05:27:20.394Z,876.00
2019-03-30T05:28:20.388Z,912.00
2019-03-30T05:29:20.371Z,928.00
2019-03-30T05:30:20.357Z,968.00
2019-03-30T05:31:20.366Z,1004.00
2019-03-30T05:32:20.343Z,1020.00
2019-03-30T05:33:20.328Z,1024.00
2019-03-30T05:34:20.320Z,1060.00
2019-03-30T05:35:20.307Z,1092.00
2019-03-30T05:36:20.304Z,1088.00
2019-03-30T05:37:20.291Z,1076.00
2019-03-30T05:38:20.278Z,1064.00
2019-03-30T05:39:20.263Z,1052.00
2019-03-30T05:40:20.253Z,1044.00
2019-03-30T05:41:20.276Z,1044.00
2019-03-30T05:42:20.239Z,1068.00
2019-03-30T05:43:20.225Z,1104.00
2019-03-30T05:44:20.217Z,1140.00
2019-03-30T05:45:20.200Z,1136.00
2019-03-30T05:46:20.196Z,1124.00
2019-03-30T05:47:20.203Z,1132.00
2019-03-30T05:48:20.168Z,1164.00
2019-03-30T05:49:20.158Z,1228.00
2019-03-30T05:50:20.151Z,1396.00
2019-03-30T05:51:20.150Z,1508.00
2019-03-30T05:52:26.373Z,1552.00
2019-03-30T05:53:21.116Z,1596.00
2019-03-30T05:54:20.112Z,1636.00
2019-03-30T05:55:20.094Z,1728.00
2019-03-30T05:56:20.164Z,1828.00
2019-03-30T05:57:20.115Z,1892.00
2019-03-30T05:58:20.088Z,1976.00
2019-03-30T05:59:20.052Z,2008.00
2019-03-30T06:00:20.045Z,2056.00
2019-03-30T06:01:20.038Z,2168.00
2019-03-30T06:02:20.019Z,2156.00
2019-03-30T06:03:20.022Z,2216.00
2019-03-30T06:04:20.004Z,2312.00
2019-03-30T06:05:19.993Z,2464.00
2019-03-30T06:06:19.983Z,2504.00
2019-03-30T06:07:19.976Z,2492.00
2019-03-30T06:08:19.973Z,2516.00
2019-03-30T06:09:19.948Z,2564.00
2019-03-30T06:10:19.942Z,2532.00
2019-03-30T06:11:19.926Z,2556.00
2019-03-30T06:12:19.913Z,2576.00
2019-03-30T06:13:19.933Z,2648.00
2019-03-30T06:14:19.899Z,2784.00
2019-03-30T06:15:19.887Z,2928.00
2019-03-30T06:16:19.883Z,3052.00
2019-03-30T06:17:19.865Z,3180.00
2019-03-30T06:18:19.850Z,3248.00
2019-03-30T06:19:19.859Z,3340.00
2019-03-30T06:20:19.836Z,3428.00
2019-03-30T06:21:19.818Z,3544.00
2019-03-30T06:22:19.814Z,3628.00
2019-03-30T06:23:19.802Z,3748.00
2019-03-30T06:24:19.816Z,3860.00
2019-03-30T06:25:19.782Z,3948.00
2019-03-30T06:26:19.934Z,4028.00
2019-03-30T06:27:19.759Z,4052.00
2019-03-30T06:28:19.748Z,4160.00
2019-03-30T06:29:19.738Z,4148.00
2019-03-30T06:30:19.742Z,4160.00
2019-03-30T06:31:19.716Z,4172.00
2019-03-30T06:32:19.702Z,3792.00
2019-03-30T06:33:19.695Z,4164.00
2019-03-30T06:34:19.680Z,3044.00
2019-03-30T06:35:19.714Z,3156.00
2019-03-30T06:36:19.661Z,3976.00
2019-03-30T06:37:19.656Z,4324.00
2019-03-30T06:38:19.643Z,4536.00
2019-03-30T06:39:19.626Z,4676.00
2019-03-30T06:40:19.622Z,4936.00
2019-03-30T06:41:19.619Z,5288.00
2019-03-30T06:42:19.600Z,5264.00
2019-03-30T06:43:19.594Z,5292.00
2019-03-30T06:44:19.585Z,6004.00
2019-03-30T06:45:19.563Z,6516.00
2019-03-30T06:46:19.558Z,6676.00
2019-03-30T06:47:19.540Z,6480.00
2019-03-30T06:48:19.533Z,6432.00
2019-03-30T06:49:19.528Z,5984.00
2019-03-30T06:50:19.513Z,5308.00
2019-03-30T06:51:19.522Z,5368.00
2019-03-30T06:52:19.489Z,5456.00
2019-03-30T06:53:19.483Z,6212.00
2019-03-30T06:54:19.473Z,6996.00
2019-03-30T06:55:19.462Z,7440.00
2019-03-30T06:56:19.448Z,8296.00
2019-03-30T06:57:19.446Z,8692.00
2019-03-30T06:58:19.422Z,9732.00
2019-03-30T06:59:19.412Z,10248.00
2019-03-30T07:00:19.407Z,10432.00
2019-03-30T07:01:19.398Z,10952.00
2019-03-30T07:02:19.386Z,11428.00
2019-03-30T07:03:19.379Z,11528.00
2019-03-30T07:04:19.362Z,11248.00
2019-03-30T07:05:19.347Z,10796.00
2019-03-30T07:06:19.344Z,10872.00
2019-03-30T07:07:19.326Z,11332.00
2019-03-30T07:08:19.357Z,11904.00
2019-03-30T07:09:19.319Z,11904.00
2019-03-30T07:10:19.299Z,11288.00
2019-03-30T07:11:21.317Z,10500.00
2019-03-30T07:12:19.283Z,10452.00
2019-03-30T07:13:19.277Z,10280.00
2019-03-30T07:14:19.262Z,9336.00
2019-03-30T07:15:19.256Z,8152.00
2019-03-30T07:16:19.229Z,7784.00
2019-03-30T07:17:19.222Z,7168.00
2019-03-30T07:18:19.224Z,6924.00
2019-03-30T07:19:19.211Z,6776.00
2019-03-30T07:20:19.191Z,6792.00
2019-03-30T07:21:19.175Z,6784.00
2019-03-30T07:22:19.164Z,6764.00
2019-03-30T07:23:19.160Z,6788.00
2019-03-30T07:24:19.182Z,6852.00
2019-03-30T07:25:19.144Z,6864.00
2019-03-30T07:26:19.126Z,6896.00
2019-03-30T07:27:19.111Z,6892.00
2019-03-30T07:28:19.103Z,6968.00
2019-03-30T07:29:19.093Z,6904.00
2019-03-30T07:30:19.093Z,6932.00
2019-03-30T07:31:19.086Z,6200.00
2019-03-30T07:32:19.065Z,6896.00
2019-03-30T07:33:19.051Z,6996.00
2019-03-30T07:34:20.034Z,7084.00
2019-03-30T07:35:19.041Z,7028.00
2019-03-30T07:36:19.022Z,6988.00
2019-03-30T07:37:19.014Z,7104.00
2019-03-30T07:38:18.997Z,7164.00
2019-03-30T07:39:18.981Z,7124.00
2019-03-30T07:40:18.989Z,7040.00
2019-03-30T07:41:18.977Z,7028.00
2019-03-30T07:42:18.952Z,7124.00
2019-03-30T07:43:18.938Z,7144.00
2019-03-30T07:44:18.933Z,7204.00
2019-03-30T07:45:18.918Z,7280.00
2019-03-30T07:46:19.728Z,7288.00
2019-03-30T07:47:18.905Z,7364.00
2019-03-30T07:48:18.892Z,6992.00
2019-03-30T07:49:18.879Z,7516.00
2019-03-30T07:50:18.872Z,7484.00
2019-03-30T07:51:18.878Z,7596.00
2019-03-30T07:52:18.842Z,7744.00
2019-03-30T07:53:26.226Z,7844.00
2019-03-30T07:54:19.820Z,7956.00
2019-03-30T07:55:18.810Z,7908.00
2019-03-30T07:56:18.803Z,8140.00
2019-03-30T07:57:18.804Z,8248.00
2019-03-30T07:58:18.785Z,8588.00
2019-03-30T07:59:18.771Z,8576.00
2019-03-30T08:00:18.756Z,8532.00
2019-03-30T08:01:18.754Z,8468.00
2019-03-30T08:02:18.752Z,8648.00
2019-03-30T08:03:18.724Z,8504.00
2019-03-30T08:04:18.721Z,8648.00
2019-03-30T08:05:18.708Z,8768.00
2019-03-30T08:06:18.697Z,8828.00
2019-03-30T08:07:18.711Z,8900.00
2019-03-30T08:08:18.676Z,8888.00
2019-03-30T08:09:18.670Z,8888.00
2019-03-30T08:10:18.662Z,8940.00
2019-03-30T08:11:18.647Z,8984.00
2019-03-30T08:12:18.635Z,9012.00
2019-03-30T08:13:18.625Z,9056.00
2019-03-30T08:14:18.637Z,9164.00
2019-03-30T08:15:18.612Z,9248.00
2019-03-30T08:16:18.588Z,9448.00
2019-03-30T08:17:18.598Z,9604.00
2019-03-30T08:18:18.572Z,9644.00
2019-03-30T08:19:21.643Z,9500.00
2019-03-30T08:20:18.561Z,9436.00
2019-03-30T08:21:18.538Z,9480.00
2019-03-30T08:22:18.530Z,9736.00
2019-03-30T08:23:18.516Z,9672.00
2019-03-30T08:24:18.513Z,9584.00
2019-03-30T08:25:18.497Z,9908.00
2019-03-30T08:26:18.485Z,9904.00
2019-03-30T08:27:18.475Z,10108.00
2019-03-30T08:28:18.499Z,10084.00
2019-03-30T08:29:18.446Z,9760.00
2019-03-30T08:30:18.441Z,9892.00
2019-03-30T08:31:18.434Z,9872.00
2019-03-30T08:32:18.415Z,10120.00
2019-03-30T08:33:18.415Z,10412.00
2019-03-30T08:34:18.409Z,10236.00
2019-03-30T08:35:18.393Z,10336.00
2019-03-30T08:36:18.378Z,10408.00
2019-03-30T08:37:18.370Z,10336.00
2019-03-30T08:38:18.351Z,10604.00
2019-03-30T08:39:18.356Z,10720.00
2019-03-30T08:40:18.331Z,10268.00
2019-03-30T08:41:18.325Z,10156.00
2019-03-30T08:42:18.314Z,10244.00
2019-03-30T08:43:18.309Z,10472.00
2019-03-30T08:44:18.300Z,10272.00
2019-03-30T08:45:18.288Z,10336.00
2019-03-30T08:46:18.270Z,10264.00
2019-03-30T08:47:18.266Z,10260.00
2019-03-30T08:48:18.254Z,10552.00
2019-03-30T08:49:18.263Z,10576.00
2019-03-30T08:50:18.234Z,10388.00
2019-03-30T08:51:20.762Z,10632.00
2019-03-30T08:52:18.203Z,10764.00
2019-03-30T08:53:18.204Z,10684.00
2019-03-30T08:54:18.209Z,9968.00
2019-03-30T08:55:18.177Z,10340.00
2019-03-30T08:56:18.160Z,10740.00
2019-03-30T08:57:18.152Z,10876.00
2019-03-30T08:58:18.145Z,10784.00
2019-03-30T08:59:18.140Z,10972.00
2019-03-30T09:00:18.619Z,11072.00
2019-03-30T09:01:18.137Z,10564.00
2019-03-30T09:02:18.106Z,10596.00
2019-03-30T09:03:18.094Z,10380.00
2019-03-30T09:04:18.075Z,10700.00
2019-03-30T09:05:18.074Z,10636.00
2019-03-30T09:06:18.061Z,10784.00
2019-03-30T09:07:18.051Z,10900.00
2019-03-30T09:08:18.065Z,11208.00
2019-03-30T09:09:18.028Z,11236.00
2019-03-30T09:10:18.018Z,11448.00
2019-03-30T09:11:18.017Z,11264.00
2019-03-30T09:12:18.004Z,11136.00
2019-03-30T09:13:17.986Z,11044.00
2019-03-30T09:14:17.977Z,11868.00
2019-03-30T09:15:17.974Z,10520.00
2019-03-30T09:16:17.982Z,11136.00
2019-03-30T09:17:17.943Z,11868.00
2019-03-30T09:18:17.932Z,11116.00
2019-03-30T09:19:22.151Z,10600.00
2019-03-30T09:20:17.912Z,10760.00
2019-03-30T09:21:17.906Z,10884.00
2019-03-30T09:22:17.899Z,10852.00
2019-03-30T09:23:17.883Z,11140.00
2019-03-30T09:24:17.878Z,11512.00
2019-03-30T09:25:17.858Z,12172.00
2019-03-30T09:26:17.891Z,12232.00
2019-03-30T09:27:17.841Z,12472.00
2019-03-30T09:28:17.826Z,12172.00
2019-03-30T09:29:17.821Z,11576.00
2019-03-30T09:30:17.810Z,11340.00
2019-03-30T09:31:17.802Z,11620.00
2019-03-30T09:32:17.807Z,11824.00
2019-03-30T09:33:17.779Z,11892.00
2019-03-30T09:34:17.772Z,11620.00
2019-03-30T09:35:17.761Z,11624.00
2019-03-30T09:36:17.742Z,11472.00
2019-03-30T09:37:17.747Z,11076.00
2019-03-30T09:38:17.722Z,10772.00
2019-03-30T09:39:17.717Z,11144.00
2019-03-30T09:40:17.706Z,11352.00
2019-03-30T09:41:17.694Z,10704.00
2019-03-30T09:42:17.692Z,10588.00
2019-03-30T09:43:17.696Z,10912.00
2019-03-30T09:44:17.657Z,11132.00
2019-03-30T09:45:17.693Z,10904.00
2019-03-30T09:46:17.637Z,11092.00
2019-03-30T09:47:17.626Z,10584.00
2019-03-30T09:48:17.622Z,10840.00
2019-03-30T09:49:17.609Z,10852.00
2019-03-30T09:50:17.601Z,11208.00
2019-03-30T09:51:17.596Z,11600.00
2019-03-30T09:52:17.578Z,11028.00
2019-03-30T09:53:17.568Z,11628.00
2019-03-30T09:54:23.553Z,12180.00
2019-03-30T09:55:18.544Z,11260.00
2019-03-30T09:56:17.544Z,10264.00
2019-03-30T09:57:17.521Z,10528.00
2019-03-30T09:58:17.517Z,9420.00
2019-03-30T09:59:17.505Z,10208.00
2019-03-30T10:00:17.507Z,11368.00
2019-03-30T10:01:17.484Z,11472.00
2019-03-30T10:02:17.468Z,10688.00
2019-03-30T10:03:17.457Z,10560.00
2019-03-30T10:04:17.462Z,10876.00
2019-03-30T10:05:17.437Z,9964.00
2019-03-30T10:06:17.434Z,12072.00
2019-03-30T10:07:17.437Z,11740.00
2019-03-30T10:08:17.413Z,11464.00
2019-03-30T10:09:17.403Z,11768.00
2019-03-30T10:10:17.395Z,12172.00
2019-03-30T10:11:17.376Z,13044.00
2019-03-30T10:12:17.370Z,13024.00
2019-03-30T10:13:17.358Z,12748.00
2019-03-30T10:14:17.342Z,12148.00
2019-03-30T10:15:17.348Z,11820.00
2019-03-30T10:16:17.327Z,11464.00
2019-03-30T10:17:17.324Z,11288.00
2019-03-30T10:18:17.316Z,12012.00
2019-03-30T10:19:17.297Z,12008.00
2019-03-30T10:20:17.294Z,11344.00
2019-03-30T10:21:17.292Z,11888.00
2019-03-30T10:22:17.258Z,11828.00
2019-03-30T10:23:17.260Z,11436.00
2019-03-30T10:24:17.239Z,12040.00
2019-03-30T10:25:17.234Z,12328.00
2019-03-30T10:26:17.245Z,12584.00
2019-03-30T10:27:17.211Z,12784.00
2019-03-30T10:28:17.203Z,12532.00
2019-03-30T10:29:17.186Z,12720.00
2019-03-30T10:30:17.186Z,12152.00
2019-03-30T10:31:17.268Z,11508.00
2019-03-30T10:32:17.173Z,11900.00
2019-03-30T10:33:17.180Z,11432.00
2019-03-30T10:34:17.148Z,12444.00
2019-03-30T10:35:17.218Z,12204.00
2019-03-30T10:36:17.211Z,12584.00
2019-03-30T10:37:17.101Z,11972.00
2019-03-30T10:38:17.098Z,11556.00
2019-03-30T10:39:17.093Z,11652.00
2019-03-30T10:40:20.630Z,9968.00
2019-03-30T10:41:17.066Z,11524.00
2019-03-30T10:42:17.055Z,11500.00
2019-03-30T10:43:17.041Z,11668.00
2019-03-30T10:44:17.066Z,11784.00
2019-03-30T10:45:17.028Z,12216.00
2019-03-30T10:46:17.011Z,11536.00
2019-03-30T10:47:16.998Z,11428.00
2019-03-30T10:48:16.989Z,11496.00
2019-03-30T10:49:16.999Z,11296.00
2019-03-30T10:50:16.981Z,10740.00
2019-03-30T10:51:16.965Z,10576.00
2019-03-30T10:52:16.955Z,10380.00
2019-03-30T10:53:16.946Z,10456.00
2019-03-30T10:54:17.601Z,10296.00
2019-03-30T10:55:16.935Z,10860.00
2019-03-30T10:56:16.912Z,10832.00
2019-03-30T10:57:16.905Z,10684.00
2019-03-30T10:58:16.896Z,10532.00
2019-03-30T10:59:16.881Z,10580.00
2019-03-30T11:00:16.872Z,10612.00
2019-03-30T11:01:16.870Z,10624.00
2019-03-30T11:02:16.852Z,10552.00
2019-03-30T11:03:16.868Z,10648.00
2019-03-30T11:04:16.822Z,10852.00
2019-03-30T11:05:16.820Z,10536.00
2019-03-30T11:06:16.827Z,10288.00
2019-03-30T11:07:16.795Z,10708.00
2019-03-30T11:08:16.787Z,10920.00
2019-03-30T11:09:16.785Z,10728.00
2019-03-30T11:10:16.761Z,10568.00
2019-03-30T11:11:16.760Z,10296.00
2019-03-30T11:12:16.755Z,10244.00
2019-03-30T11:13:16.734Z,10256.00
2019-03-30T11:14:16.781Z,10228.00
2019-03-30T11:15:16.716Z,10220.00
2019-03-30T11:16:16.714Z,10292.00
2019-03-30T11:17:19.318Z,10172.00
2019-03-30T11:18:16.687Z,10184.00
2019-03-30T11:19:16.677Z,10544.00
2019-03-30T11:20:16.667Z,10432.00
2019-03-30T11:21:16.662Z,10264.00
2019-03-30T11:22:16.668Z,9700.00
2019-03-30T11:23:16.638Z,10224.00
2019-03-30T11:24:16.626Z,10424.00
2019-03-30T11:25:16.616Z,10288.00
2019-03-30T11:26:16.615Z,10240.00
2019-03-30T11:27:17.248Z,10324.00
2019-03-30T11:28:16.619Z,10280.00
2019-03-30T11:29:16.577Z,10400.00
2019-03-30T11:30:16.574Z,10460.00
2019-03-30T11:31:16.565Z,10588.00
2019-03-30T11:32:16.544Z,10688.00
2019-03-30T11:33:16.543Z,10904.00
2019-03-30T11:34:16.527Z,11112.00
2019-03-30T11:35:16.515Z,11136.00
2019-03-30T11:36:18.688Z,11152.00
2019-03-30T11:37:16.489Z,11028.00
2019-03-30T11:38:16.483Z,11012.00
2019-03-30T11:39:16.475Z,11004.00
2019-03-30T11:40:16.463Z,11396.00
2019-03-30T11:41:16.455Z,11768.00
2019-03-30T11:42:16.565Z,12372.00
2019-03-30T11:43:16.431Z,12520.00
2019-03-30T11:44:16.424Z,12688.00
2019-03-30T11:45:16.408Z,12876.00
2019-03-30T11:46:16.408Z,13048.00
2019-03-30T11:47:16.412Z,14760.00
2019-03-30T11:48:16.383Z,18272.00
2019-03-30T11:49:16.368Z,26880.00
2019-03-30T11:50:16.359Z,38560.00
2019-03-30T11:51:16.355Z,49888.00
2019-03-30T11:52:16.376Z,65728.00
2019-03-30T11:53:16.329Z,73408.00
2019-03-30T11:54:16.326Z,76192.00
2019-03-30T11:55:22.194Z,81568.00
2019-03-30T11:56:17.307Z,80128.00
2019-03-30T11:57:16.290Z,85504.00
2019-03-30T11:58:16.296Z,88512.00
2019-03-30T11:59:16.266Z,89824.00
2019-03-30T12:00:16.262Z,90432.00
2019-03-30T12:01:16.246Z,90720.00
2019-03-30T12:02:27.278Z,88160.00
2019-03-30T12:03:17.236Z,87552.00
2019-03-30T12:04:16.224Z,87744.00
2019-03-30T12:05:16.206Z,89280.00
2019-03-30T12:06:16.201Z,88672.00
2019-03-30T12:07:16.190Z,89600.00
2019-03-30T12:08:16.179Z,87200.00
2019-03-30T12:09:16.478Z,87360.00
2019-03-30T12:10:16.155Z,81728.00
2019-03-30T12:11:16.171Z,82656.00
2019-03-30T12:12:16.134Z,80640.00
2019-03-30T12:13:16.130Z,84416.00
2019-03-30T12:14:16.129Z,87424.00
2019-03-30T12:15:16.117Z,84288.00
2019-03-30T12:16:16.105Z,84416.00
2019-03-30T12:17:16.096Z,87072.00
2019-03-30T12:18:16.080Z,90176.00
2019-03-30T12:19:16.079Z,88192.00
2019-03-30T12:20:16.062Z,83488.00
2019-03-30T12:21:16.065Z,79904.00
2019-03-30T12:22:16.034Z,81088.00
2019-03-30T12:23:16.024Z,88640.00
2019-03-30T12:24:16.028Z,88960.00
2019-03-30T12:25:16.008Z,90432.00
2019-03-30T12:26:16.235Z,90208.00
2019-03-30T12:27:16.000Z,87904.00
2019-03-30T12:28:15.984Z,86560.00
2019-03-30T12:29:15.965Z,87488.00
2019-03-30T12:30:15.969Z,84640.00
2019-03-30T12:31:15.945Z,83904.00
2019-03-30T12:32:15.947Z,81760.00
2019-03-30T12:33:15.936Z,84000.00
2019-03-30T12:34:15.917Z,85184.00
2019-03-30T12:35:15.911Z,88736.00
2019-03-30T12:36:16.123Z,88160.00
2019-03-30T12:37:15.897Z,84640.00
2019-03-30T12:38:15.871Z,83264.00
2019-03-30T12:39:15.877Z,86720.00
2019-03-30T12:40:15.855Z,86368.00
2019-03-30T12:41:15.846Z,79840.00
2019-03-30T12:42:15.857Z,68192.00
2019-03-30T12:43:15.823Z,65856.00
2019-03-30T12:44:15.814Z,64672.00
2019-03-30T12:45:15.815Z,69696.00
2019-03-30T12:46:15.790Z,83168.00
2019-03-30T12:47:15.784Z,52256.00
2019-03-30T12:48:15.812Z,51264.00
2019-03-30T12:49:15.767Z,38784.00
2019-03-30T12:50:15.754Z,46016.00
2019-03-30T12:51:15.745Z,55776.00
2019-03-30T12:52:15.730Z,45440.00
2019-03-30T12:53:15.716Z,46432.00
2019-03-30T12:54:15.721Z,39936.00
2019-03-30T12:55:15.699Z,54688.00
2019-03-30T12:56:15.687Z,55392.00
2019-03-30T12:57:15.686Z,45536.00
2019-03-30T12:58:15.665Z,56288.00
2019-03-30T12:59:15.672Z,56896.00
2019-03-30T13:00:15.646Z,59520.00
2019-03-30T13:01:15.776Z,24032.00
2019-03-30T13:02:15.631Z,19360.00
2019-03-30T13:03:15.621Z,17920.00
2019-03-30T13:04:15.608Z,36288.00
2019-03-30T13:05:15.650Z,33632.00
2019-03-30T13:06:15.609Z,65056.00
2019-03-30T13:07:15.571Z,68448.00
2019-03-30T13:08:15.574Z,61600.00
2019-03-30T13:09:15.556Z,47808.00
2019-03-30T13:10:15.545Z,41696.00
2019-03-30T13:11:15.557Z,37504.00
2019-03-30T13:12:15.527Z,19296.00
2019-03-30T13:13:15.518Z,19776.00
2019-03-30T13:14:15.502Z,18688.00
2019-03-30T13:15:15.500Z,23744.00
2019-03-30T13:16:15.484Z,30464.00
2019-03-30T13:17:15.499Z,36448.00
2019-03-30T13:18:15.463Z,33312.00
2019-03-30T13:19:15.448Z,22208.00
2019-03-30T13:20:15.441Z,17504.00
2019-03-30T13:21:15.430Z,10524.00
2019-03-30T13:22:15.415Z,22464.00
2019-03-30T13:23:15.440Z,18976.00
2019-03-30T13:24:15.392Z,26528.00
2019-03-30T13:25:15.392Z,23264.00
2019-03-30T13:26:15.376Z,16704.00
2019-03-30T13:27:16.197Z,36896.00
2019-03-30T13:28:15.355Z,36384.00
2019-03-30T13:29:15.352Z,52480.00
2019-03-30T13:30:15.338Z,35232.00
2019-03-30T13:31:15.329Z,57312.00
2019-03-30T13:32:15.716Z,69440.00
2019-03-30T13:33:15.305Z,59136.00
2019-03-30T13:34:15.285Z,54400.00
2019-03-30T13:35:15.280Z,63168.00
2019-03-30T13:36:15.329Z,60736.00
2019-03-30T13:37:16.197Z,38976.00
2019-03-30T13:38:15.426Z,13848.00
2019-03-30T13:39:15.251Z,31520.00
2019-03-30T13:40:15.226Z,36800.00
2019-03-30T13:41:15.216Z,40736.00
2019-03-30T13:42:15.203Z,23904.00
2019-03-30T13:43:15.203Z,31808.00
2019-03-30T13:44:15.186Z,39968.00
2019-03-30T13:45:15.166Z,41696.00
2019-03-30T13:46:15.170Z,38912.00
2019-03-30T13:47:15.150Z,25504.00
2019-03-30T13:48:15.139Z,24032.00
2019-03-30T13:49:15.136Z,26208.00
2019-03-30T13:50:15.114Z,29152.00
2019-03-30T13:51:15.147Z,23648.00
2019-03-30T13:52:15.096Z,15944.00
2019-03-30T13:53:15.085Z,25952.00
2019-03-30T13:54:15.078Z,22176.00
2019-03-30T13:55:15.330Z,40960.00
2019-03-30T13:56:17.461Z,27808.00
2019-03-30T13:57:15.052Z,26560.00
2019-03-30T13:58:15.029Z,16384.00
2019-03-30T13:59:15.027Z,7244.00
2019-03-30T14:00:15.072Z,6304.00
2019-03-30T14:01:14.999Z,5564.00
2019-03-30T14:02:14.986Z,5480.00
2019-03-30T14:03:14.975Z,5240.00
2019-03-30T14:04:14.968Z,5168.00
2019-03-30T14:05:14.962Z,5248.00
2019-03-30T14:06:14.961Z,5352.00
2019-03-30T14:07:14.940Z,5204.00
2019-03-30T14:08:14.928Z,5316.00
2019-03-30T14:09:14.918Z,5376.00
2019-03-30T14:10:15.679Z,5364.00
2019-03-30T14:11:14.903Z,5156.00
2019-03-30T14:12:14.879Z,5288.00
2019-03-30T14:13:14.871Z,5080.00
2019-03-30T14:14:14.968Z,4784.00
2019-03-30T14:15:14.857Z,4976.00
2019-03-30T14:16:14.850Z,4632.00
2019-03-30T14:17:14.843Z,4568.00
2019-03-30T14:18:14.856Z,4836.00
2019-03-30T14:19:14.852Z,4928.00
2019-03-30T14:20:14.816Z,4976.00
2019-03-30T14:21:14.860Z,4896.00
2019-03-30T14:22:14.774Z,4964.00
2019-03-30T14:23:14.821Z,4648.00
2019-03-30T14:24:14.817Z,4596.00
2019-03-30T14:25:14.750Z,4852.00
2019-03-30T14:26:14.742Z,4892.00
2019-03-30T14:27:14.735Z,4844.00
2019-03-30T14:28:14.778Z,4832.00
2019-03-30T14:29:14.817Z,4852.00
2019-03-30T14:30:14.709Z,4816.00
2019-03-30T14:31:14.721Z,4664.00
2019-03-30T14:32:14.679Z,4676.00
2019-03-30T14:33:14.664Z,4576.00
2019-03-30T14:34:14.667Z,4424.00
2019-03-30T14:35:14.641Z,4492.00
2019-03-30T14:36:14.636Z,4444.00
2019-03-30T14:37:14.612Z,4460.00
2019-03-30T14:38:14.604Z,4352.00
2019-03-30T14:39:14.593Z,4384.00
2019-03-30T14:40:14.598Z,4572.00
2019-03-30T14:41:14.573Z,4456.00
2019-03-30T14:42:14.560Z,4588.00
2019-03-30T14:43:14.556Z,4648.00
2019-03-30T14:44:14.702Z,4640.00
2019-03-30T14:45:14.630Z,4452.00
2019-03-30T14:46:14.528Z,4508.00
2019-03-30T14:47:14.504Z,4264.00
2019-03-30T14:48:14.503Z,4020.00
2019-03-30T14:49:14.550Z,4100.00
2019-03-30T14:50:14.734Z,6928.00
2019-03-30T14:51:14.462Z,8272.00
2019-03-30T14:52:14.462Z,22048.00
2019-03-30T14:53:14.585Z,18848.00
2019-03-30T14:54:14.452Z,21856.00
2019-03-30T14:55:14.434Z,20128.00
2019-03-30T14:56:14.414Z,27936.00
2019-03-30T14:57:14.404Z,26720.00
2019-03-30T14:58:14.398Z,23168.00
2019-03-30T14:59:14.671Z,19904.00
2019-03-30T15:00:14.427Z,21408.00
2019-03-30T15:01:14.356Z,26720.00
2019-03-30T15:02:14.353Z,15872.00
2019-03-30T15:03:14.344Z,19840.00
2019-03-30T15:04:14.324Z,18016.00
2019-03-30T15:05:14.328Z,12288.00
2019-03-30T15:06:14.320Z,9716.00
2019-03-30T15:07:14.298Z,3904.00
2019-03-30T15:08:14.285Z,3760.00
2019-03-30T15:09:14.271Z,5988.00
2019-03-30T15:10:14.262Z,13120.00
2019-03-30T15:11:14.281Z,24576.00
2019-03-30T15:12:14.256Z,27552.00
2019-03-30T15:13:14.233Z,18144.00
2019-03-30T15:14:14.225Z,7572.00
2019-03-30T15:15:14.216Z,3132.00
2019-03-30T15:16:14.201Z,3808.00
2019-03-30T15:17:14.202Z,10352.00
2019-03-30T15:18:14.181Z,13768.00
2019-03-30T15:19:14.168Z,6420.00
2019-03-30T15:20:14.181Z,2888.00
2019-03-30T15:21:14.149Z,2768.00
2019-03-30T15:22:14.195Z,2728.00
2019-03-30T15:23:14.125Z,2692.00
2019-03-30T15:24:14.119Z,2656.00
2019-03-30T15:25:14.106Z,2620.00
2019-03-30T15:26:14.097Z,2588.00
2019-03-30T15:27:14.088Z,2556.00
2019-03-30T15:28:14.083Z,2520.00
2019-03-30T15:29:14.058Z,2496.00
2019-03-30T15:30:14.048Z,2476.00
2019-03-30T15:31:14.044Z,2456.00
2019-03-30T15:32:14.242Z,2436.00
2019-03-30T15:33:14.036Z,2404.00
2019-03-30T15:34:14.007Z,2372.00
2019-03-30T15:35:13.998Z,2348.00
2019-03-30T15:36:13.988Z,2332.00
2019-03-30T15:37:13.986Z,2312.00
2019-03-30T15:38:13.970Z,2292.00
2019-03-30T15:39:13.961Z,2264.00
2019-03-30T15:40:13.939Z,2228.00
2019-03-30T15:41:13.932Z,2204.00
2019-03-30T15:42:13.949Z,2212.00
2019-03-30T15:43:13.931Z,2220.00
2019-03-30T15:44:13.917Z,2184.00
2019-03-30T15:45:13.893Z,2164.00
2019-03-30T15:46:14.429Z,2152.00
2019-03-30T15:47:13.870Z,2136.00
2019-03-30T15:48:13.859Z,2120.00
2019-03-30T15:49:13.856Z,2112.00
2019-03-30T15:50:13.831Z,2100.00
2019-03-30T15:51:13.820Z,2092.00
2019-03-30T15:52:14.474Z,2076.00
2019-03-30T15:53:13.800Z,2056.00
2019-03-30T15:54:13.823Z,2044.00
2019-03-30T15:55:13.793Z,2016.00
2019-03-30T15:56:13.774Z,1988.00
2019-03-30T15:57:14.562Z,1948.00
2019-03-30T15:58:13.747Z,1904.00
2019-03-30T15:59:13.733Z,1876.00
2019-03-30T16:00:13.755Z,1868.00
2019-03-30T16:01:13.725Z,1848.00
2019-03-30T16:02:13.702Z,1812.00
2019-03-30T16:03:13.698Z,1800.00
2019-03-30T16:04:13.687Z,1792.00
2019-03-30T16:05:15.676Z,1780.00
2019-03-30T16:06:13.666Z,1760.00
2019-03-30T16:07:13.648Z,1748.00
2019-03-30T16:08:13.643Z,1724.00
2019-03-30T16:09:13.627Z,1684.00
2019-03-30T16:10:13.626Z,1664.00
2019-03-30T16:11:13.626Z,1656.00
2019-03-30T16:12:13.613Z,1632.00
2019-03-30T16:13:14.785Z,1608.00
2019-03-30T16:14:13.580Z,1584.00
2019-03-30T16:15:13.570Z,1564.00
2019-03-30T16:16:13.591Z,1548.00
2019-03-30T16:17:15.015Z,1532.00
2019-03-30T16:18:13.547Z,1512.00
2019-03-30T16:19:13.521Z,1484.00
2019-03-30T16:20:13.508Z,1456.00
2019-03-30T16:21:13.511Z,1432.00
2019-03-30T16:22:13.533Z,1412.00
2019-03-30T16:23:13.484Z,1380.00
2019-03-30T16:24:13.653Z,1324.00
2019-03-30T16:25:13.513Z,1296.00
2019-03-30T16:26:13.449Z,1308.00
2019-03-30T16:27:27.818Z,1308.00
2019-03-30T16:28:14.447Z,1288.00
2019-03-30T16:29:13.421Z,1272.00
2019-03-30T16:30:13.568Z,1252.00
2019-03-30T16:31:13.388Z,1228.00
2019-03-30T16:32:16.777Z,1208.00
2019-03-30T16:33:20.473Z,1188.00
2019-03-30T16:34:13.357Z,1172.00
2019-03-30T16:35:13.345Z,1148.00
2019-03-30T16:36:13.336Z,1124.00
2019-03-30T16:37:13.330Z,1108.00
2019-03-30T16:38:13.352Z,1092.00
2019-03-30T16:39:13.308Z,1068.00
2019-03-30T16:40:13.298Z,1040.00
2019-03-30T16:41:13.283Z,1012.00
2019-03-30T16:42:13.293Z,948.00